Time;durP1;ratioP1;P1;durP2;ratioP2;P2;SDS_P1;SDS_P2;PMS_P1;PMS_P2;Temp;Humidity;BMP_temperature;BMP_pressure;BME280_temperature;BME280_humidity;BME280_pressure;Samples;Min_cycle;Max_cycle;Signal;HPM_P1;HPM_P2
2022/04/25 00:01:24;;;;;;;53.03;35.60;;;;;;;;;;4973147;28;20062;-92
2022/04/25 00:03:52;;;;;;;43.70;32.38;;;;;;;;;;4971008;28;20441;-92
2022/04/25 00:06:19;;;;;;;53.30;35.55;;;;;;;;;;4971746;28;20082;-92
2022/04/25 00:08:46;;;;;;;47.65;33.53;;;;;;;;;;4971959;28;20051;-93
2022/04/25 00:11:13;;;;;;;61.13;37.53;;;;;;;;;;4971886;28;20098;-92
2022/04/25 00:13:41;;;;;;;54.22;37.00;;;;;;;;;;4971638;28;20515;-93
2022/04/25 00:16:08;;;;;;;48.75;34.25;;;;;;;;;;4972117;28;20492;-93
2022/04/25 00:18:36;;;;;;;47.65;33.70;;;;;;;;;;4972041;28;20063;-94
2022/04/25 00:21:04;;;;;;;50.80;35.22;;;;;;;;;;4972275;28;20047;-93
2022/04/25 00:23:31;;;;;;;47.17;33.03;;;;;;;;;;4971265;28;20059;-92
2022/04/25 00:25:58;;;;;;;51.83;35.65;;;;;;;;;;4970938;28;20051;-92
2022/04/25 00:28:26;;;;;;;54.17;35.63;;;;;;;;;;4972561;28;20058;-91
2022/04/25 00:30:53;;;;;;;51.80;34.65;;;;;;;;;;4971187;28;20138;-91
2022/04/25 00:33:20;;;;;;;54.90;36.65;;;;;;;;;;4982320;28;20071;-91
2022/04/25 00:35:48;;;;;;;50.08;35.35;;;;;;;;;;4971144;28;20155;-91
2022/04/25 00:38:15;;;;;;;48.20;35.53;;;;;;;;;;4970359;28;20437;-90
2022/04/25 00:40:42;;;;;;;49.45;35.20;;;;;;;;;;4970393;28;20130;-92
2022/04/25 00:43:09;;;;;;;46.20;34.60;;;;;;;;;;4970260;28;20055;-91
2022/04/25 00:45:37;;;;;;;50.22;34.78;;;;;;;;;;4972891;28;20496;-91
2022/04/25 00:48:05;;;;;;;45.38;33.55;;;;;;;;;;4974171;28;20055;-90
2022/04/25 00:50:32;;;;;;;44.92;33.28;;;;;;;;;;4959096;28;20134;-91
2022/04/25 00:52:59;;;;;;;44.63;31.55;;;;;;;;;;4974072;28;20082;-91
2022/04/25 00:55:27;;;;;;;42.13;31.73;;;;;;;;;;4958924;29;20081;-91
2022/04/25 00:57:56;;;;;;;40.08;30.55;;;;;;;;;;4958719;29;20057;-90
2022/04/25 01:00:24;;;;;;;46.58;32.10;;;;;;;;;;4973733;28;20047;-92
2022/04/25 01:02:51;;;;;;;43.47;32.45;;;;;;;;;;4973851;28;20444;-92
2022/04/25 01:05:19;;;;;;;42.17;31.20;;;;;;;;;;4974125;28;20094;-91
2022/04/25 01:07:46;;;;;;;44.60;31.88;;;;;;;;;;4973846;28;20053;-92
2022/04/25 01:10:13;;;;;;;42.35;31.88;;;;;;;;;;4958930;29;20142;-93
2022/04/25 01:12:40;;;;;;;41.10;30.88;;;;;;;;;;4973238;28;20043;-92
2022/04/25 01:15:09;;;;;;;42.90;32.33;;;;;;;;;;4973881;28;20055;-93
2022/04/25 01:17:36;;;;;;;44.63;32.17;;;;;;;;;;4973966;28;20472;-92
2022/04/25 01:20:04;;;;;;;41.90;32.50;;;;;;;;;;4973956;28;20047;-92
2022/04/25 01:22:32;;;;;;;42.97;30.88;;;;;;;;;;4974315;28;20130;-92
2022/04/25 01:27:53;;;;;;;50.13;33.63;;;;;;;;;;4972484;28;20047;-92
2022/04/25 01:30:20;;;;;;;45.88;32.78;;;;;;;;;;4975188;28;20061;-92
2022/04/25 01:32:47;;;;;;;58.45;34.80;;;;;;;;;;4981188;28;20496;-93
2022/04/25 01:35:28;;;;;;;47.72;32.95;;;;;;;;;;4949236;29;20055;-92
2022/04/25 01:37:56;;;;;;;49.55;32.47;;;;;;;;;;4974728;28;20126;-93
2022/04/25 01:40:25;;;;;;;56.65;35.50;;;;;;;;;;4974933;28;20063;-92
2022/04/25 01:42:52;;;;;;;58.20;35.15;;;;;;;;;;4975127;28;20142;-93
2022/04/25 01:45:20;;;;;;;49.25;35.38;;;;;;;;;;4975180;28;20063;-93
2022/04/25 01:47:47;;;;;;;56.65;37.33;;;;;;;;;;4979382;28;20412;-92
2022/04/25 01:50:14;;;;;;;66.43;39.97;;;;;;;;;;4979679;28;20138;-92
2022/04/25 01:52:42;;;;;;;63.78;39.95;;;;;;;;;;4974347;28;20047;-92
2022/04/25 01:55:09;;;;;;;64.90;39.80;;;;;;;;;;4972978;28;20051;-92
2022/04/25 01:57:36;;;;;;;59.95;39.22;;;;;;;;;;4973223;28;20054;-92
2022/04/25 02:00:05;;;;;;;60.03;39.00;;;;;;;;;;4958372;28;20142;-92
2022/04/25 02:02:32;;;;;;;64.88;40.58;;;;;;;;;;4972423;28;20066;-91
2022/04/25 02:05:00;;;;;;;54.47;37.60;;;;;;;;;;4972718;28;20055;-91
2022/04/25 02:07:27;;;;;;;64.32;40.75;;;;;;;;;;4957869;29;20474;-92
2022/04/25 02:09:54;;;;;;;60.03;38.10;;;;;;;;;;4957685;29;20058;-91
2022/04/25 02:12:22;;;;;;;61.30;38.88;;;;;;;;;;4972623;28;20051;-91
2022/04/25 02:14:50;;;;;;;69.18;43.22;;;;;;;;;;4972372;28;20066;-90
2022/04/25 02:17:17;;;;;;;58.08;39.40;;;;;;;;;;4972387;28;20134;-90
2022/04/25 02:19:44;;;;;;;59.83;39.40;;;;;;;;;;4972096;28;20080;-89
2022/04/25 02:22:12;;;;;;;55.83;39.00;;;;;;;;;;4972251;28;20055;-90
2022/04/25 02:24:40;;;;;;;67.43;41.83;;;;;;;;;;4972119;28;20094;-89
2022/04/25 02:27:07;;;;;;;66.45;42.63;;;;;;;;;;4972327;28;20469;-89
2022/04/25 02:29:39;;;;;;;61.00;40.83;;;;;;;;;;4956953;28;20218;-89
2022/04/25 02:32:06;;;;;;;58.25;40.03;;;;;;;;;;4971965;28;20055;-89
2022/04/25 02:34:34;;;;;;;54.30;36.97;;;;;;;;;;4956942;28;20051;-89
2022/04/25 02:37:02;;;;;;;56.05;39.78;;;;;;;;;;4957008;28;20073;-88
2022/04/25 02:39:29;;;;;;;60.78;39.17;;;;;;;;;;4971864;28;20063;-88
2022/04/25 02:41:56;;;;;;;54.83;37.30;;;;;;;;;;4956647;29;20533;-88
2022/04/25 02:44:24;;;;;;;63.50;42.65;;;;;;;;;;4956669;28;20048;-89
2022/04/25 02:46:51;;;;;;;62.30;41.65;;;;;;;;;;4971903;28;20051;-89
2022/04/25 02:49:18;;;;;;;59.50;39.95;;;;;;;;;;4956941;29;20061;-89
2022/04/25 02:51:45;;;;;;;58.90;39.85;;;;;;;;;;4971600;28;20047;-89
2022/04/25 02:54:12;;;;;;;59.17;39.10;;;;;;;;;;4956597;29;20411;-88
2022/04/25 02:56:40;;;;;;;52.03;38.38;;;;;;;;;;4971559;28;20119;-86
2022/04/25 02:59:07;;;;;;;48.95;35.25;;;;;;;;;;4956735;28;20051;-88
2022/04/25 03:01:34;;;;;;;49.47;35.72;;;;;;;;;;4971449;28;20071;-90
2022/04/25 03:04:02;;;;;;;47.75;35.42;;;;;;;;;;4985470;28;20047;-88
2022/04/25 03:06:29;;;;;;;47.85;35.22;;;;;;;;;;4977233;28;20126;-88
2022/04/25 03:08:56;;;;;;;52.45;36.20;;;;;;;;;;4970814;28;20054;-89
2022/04/25 03:11:25;;;;;;;51.25;35.88;;;;;;;;;;4956242;29;20053;-89
2022/04/25 03:13:55;;;;;;;50.55;36.38;;;;;;;;;;4956171;28;20057;-88
2022/04/25 03:16:23;;;;;;;46.15;34.85;;;;;;;;;;4971173;28;20051;-89
2022/04/25 03:18:50;;;;;;;53.70;37.85;;;;;;;;;;4971686;28;20110;-89
2022/04/25 03:21:18;;;;;;;54.42;36.78;;;;;;;;;;4956648;29;20071;-90
2022/04/25 03:23:45;;;;;;;50.03;36.35;;;;;;;;;;4971094;28;20133;-91
2022/04/25 03:26:12;;;;;;;54.55;37.88;;;;;;;;;;4956472;29;20053;-90
2022/04/25 03:28:39;;;;;;;52.97;37.00;;;;;;;;;;4971378;28;20257;-90
2022/04/25 03:31:07;;;;;;;48.35;36.45;;;;;;;;;;4971147;28;20094;-89
2022/04/25 03:33:35;;;;;;;54.17;37.50;;;;;;;;;;4956041;29;20059;-88
2022/04/25 03:36:03;;;;;;;53.90;37.88;;;;;;;;;;4956297;28;20457;-89
2022/04/25 03:38:30;;;;;;;50.33;35.85;;;;;;;;;;4972205;28;20059;-90
2022/04/25 03:40:57;;;;;;;57.67;39.70;;;;;;;;;;4971466;28;20059;-91
2022/04/25 03:43:25;;;;;;;55.83;38.42;;;;;;;;;;4956159;28;20417;-90
2022/04/25 03:45:52;;;;;;;53.97;38.60;;;;;;;;;;4970956;28;20485;-90
2022/04/25 03:48:20;;;;;;;50.67;36.88;;;;;;;;;;4970965;28;20389;-90
2022/04/25 03:50:48;;;;;;;57.80;39.10;;;;;;;;;;4971012;28;20055;-90
2022/04/25 03:53:15;;;;;;;55.28;38.10;;;;;;;;;;4956017;29;20137;-93
2022/04/25 03:58:28;;;;;;;54.72;38.42;;;;;;;;;;4956057;29;20071;-90
2022/04/25 04:00:56;;;;;;;58.83;39.28;;;;;;;;;;4970810;28;20067;-90
2022/04/25 04:03:23;;;;;;;53.97;38.88;;;;;;;;;;4970733;28;20094;-91
2022/04/25 04:05:52;;;;;;;49.47;35.53;;;;;;;;;;4955492;29;20054;-90
2022/04/25 04:08:20;;;;;;;59.97;41.22;;;;;;;;;;4970582;28;20090;-92
2022/04/25 04:10:47;;;;;;;58.33;39.63;;;;;;;;;;4956083;29;20055;-91
2022/04/25 04:13:15;;;;;;;59.63;38.50;;;;;;;;;;4971348;28;20051;-92
2022/04/25 04:15:42;;;;;;;57.95;38.45;;;;;;;;;;4955444;29;20134;-91
2022/04/25 04:18:09;;;;;;;57.17;38.60;;;;;;;;;;4955091;29;20130;-90
2022/04/25 04:20:37;;;;;;;61.55;39.53;;;;;;;;;;4963415;29;20148;-90
2022/04/25 04:23:05;;;;;;;51.08;36.42;;;;;;;;;;4970468;28;20086;-90
2022/04/25 04:25:33;;;;;;;55.72;39.22;;;;;;;;;;4970292;28;20089;-90
2022/04/25 04:28:00;;;;;;;63.63;41.10;;;;;;;;;;4970284;28;20051;-90
2022/04/25 04:30:27;;;;;;;72.43;40.95;;;;;;;;;;4969961;28;20124;-90
2022/04/25 04:32:54;;;;;;;70.03;41.22;;;;;;;;;;4955073;28;20134;-90
2022/04/25 04:38:08;;;;;;;64.85;40.10;;;;;;;;;;4955171;28;20126;-89
2022/04/25 04:40:35;;;;;;;63.30;40.80;;;;;;;;;;4955116;29;20082;-90
2022/04/25 04:43:03;;;;;;;63.67;40.80;;;;;;;;;;4955016;29;20620;-90
2022/04/25 04:45:30;;;;;;;61.90;39.55;;;;;;;;;;4969929;28;20055;-90
2022/04/25 04:47:57;;;;;;;58.30;38.70;;;;;;;;;;4955253;29;20492;-90
2022/04/25 04:50:25;;;;;;;58.08;39.72;;;;;;;;;;4970006;28;20158;-91
2022/04/25 04:52:53;;;;;;;55.33;38.13;;;;;;;;;;4969871;28;20138;-89
2022/04/25 04:55:20;;;;;;;49.92;36.58;;;;;;;;;;4969867;28;20419;-90
2022/04/25 04:57:47;;;;;;;59.15;39.60;;;;;;;;;;4969698;28;20079;-89
2022/04/25 05:00:15;;;;;;;53.92;35.65;;;;;;;;;;4969681;28;20051;-89
2022/04/25 05:02:43;;;;;;;51.05;36.38;;;;;;;;;;4969837;28;20055;-89
2022/04/25 05:05:12;;;;;;;53.65;36.25;;;;;;;;;;4969534;28;20086;-89
2022/04/25 05:07:39;;;;;;;55.72;38.67;;;;;;;;;;4954735;29;20059;-89
2022/04/25 05:10:06;;;;;;;57.53;37.90;;;;;;;;;;4969475;28;20052;-88
2022/04/25 05:12:50;;;;;;;59.47;39.15;;;;;;;;;;4954672;29;20104;-89
2022/04/25 05:15:18;;;;;;;61.80;39.10;;;;;;;;;;4955211;29;20048;-89
2022/04/25 05:17:50;;;;;;;58.40;38.97;;;;;;;;;;4954794;28;20520;-90
2022/04/25 05:20:17;;;;;;;60.75;43.13;;;;;;;;;;4969637;28;20106;-89
2022/04/25 05:22:46;;;;;;;60.35;42.90;;;;;;;;;;4969379;28;20577;-88
2022/04/25 05:25:14;;;;;;;78.70;56.83;;;;;;;;;;4969446;28;20106;-88
2022/04/25 05:27:45;;;;;;;44.03;34.08;;;;;;;;;;4969608;28;20058;-88
2022/04/25 05:30:13;;;;;;;46.15;34.75;;;;;;;;;;4969960;28;20051;-88
2022/04/25 05:32:41;;;;;;;49.30;35.08;;;;;;;;;;4957964;29;20102;-88
2022/04/25 05:35:09;;;;;;;44.22;34.30;;;;;;;;;;4981483;28;20091;-89
2022/04/25 05:37:37;;;;;;;44.58;33.33;;;;;;;;;;4959421;28;20082;-89
2022/04/25 05:40:05;;;;;;;41.40;33.03;;;;;;;;;;4973274;28;20078;-88
2022/04/25 05:42:33;;;;;;;49.17;33.97;;;;;;;;;;4973045;28;20086;-88
2022/04/25 05:45:01;;;;;;;50.05;33.67;;;;;;;;;;4957756;29;20134;-89
2022/04/25 05:47:28;;;;;;;41.53;30.83;;;;;;;;;;4972773;28;20055;-88
2022/04/25 05:52:41;;;;;;;40.78;30.40;;;;;;;;;;4957730;29;20047;-89
2022/04/25 05:55:10;;;;;;;42.45;29.90;;;;;;;;;;4972603;28;20146;-88
2022/04/25 05:57:37;;;;;;;38.58;28.02;;;;;;;;;;4971684;28;20223;-88
2022/04/25 06:00:05;;;;;;;35.88;27.65;;;;;;;;;;4972566;28;20051;-90
2022/04/25 06:02:32;;;;;;;37.60;27.90;;;;;;;;;;4957402;29;20138;-89
2022/04/25 06:05:00;;;;;;;37.10;27.08;;;;;;;;;;4972466;28;20059;-89
2022/04/25 06:07:27;;;;;;;36.67;28.20;;;;;;;;;;4957686;28;20126;-89
2022/04/25 06:09:54;;;;;;;38.83;28.20;;;;;;;;;;4972490;28;20051;-90
2022/04/25 06:12:22;;;;;;;33.03;25.58;;;;;;;;;;4972303;28;20138;-90
2022/04/25 06:14:49;;;;;;;31.13;23.92;;;;;;;;;;4972130;28;20054;-91
2022/04/25 06:17:16;;;;;;;28.88;22.70;;;;;;;;;;4957400;28;20488;-90
2022/04/25 06:19:43;;;;;;;25.75;21.30;;;;;;;;;;4957524;29;20086;-89
2022/04/25 06:22:10;;;;;;;28.13;21.40;;;;;;;;;;4972700;28;20055;-90
2022/04/25 06:24:38;;;;;;;25.55;20.60;;;;;;;;;;4957210;29;20516;-89
2022/04/25 06:27:08;;;;;;;24.55;19.05;;;;;;;;;;4972108;28;20054;-89
2022/04/25 06:29:35;;;;;;;28.40;19.10;;;;;;;;;;4971702;28;20047;-91
2022/04/25 06:32:05;;;;;;;22.50;17.73;;;;;;;;;;4957066;29;20431;-92
2022/04/25 06:34:32;;;;;;;17.67;15.63;;;;;;;;;;4957067;29;20047;-90
2022/04/25 06:37:00;;;;;;;23.13;17.52;;;;;;;;;;4972023;28;20105;-90
2022/04/25 06:39:27;;;;;;;21.20;16.52;;;;;;;;;;4957103;29;20134;-90
2022/04/25 06:41:54;;;;;;;21.58;17.23;;;;;;;;;;4970744;28;20054;-91
2022/04/25 06:44:21;;;;;;;20.02;15.93;;;;;;;;;;4956805;29;20057;-90
2022/04/25 06:46:49;;;;;;;18.98;15.38;;;;;;;;;;4957085;29;20134;-89
2022/04/25 06:49:19;;;;;;;20.15;15.43;;;;;;;;;;4977715;28;20141;-90
2022/04/25 06:51:47;;;;;;;21.15;16.30;;;;;;;;;;4981207;28;20051;-90
2022/04/25 06:54:15;;;;;;;21.77;16.63;;;;;;;;;;4971238;28;20083;-90
2022/04/25 06:56:42;;;;;;;23.33;16.27;;;;;;;;;;4956835;29;20167;-91
2022/04/25 06:59:09;;;;;;;22.73;17.05;;;;;;;;;;4971633;28;20049;-90
2022/04/25 07:01:38;;;;;;;20.88;16.30;;;;;;;;;;4971472;28;20584;-91
2022/04/25 07:04:09;;;;;;;21.33;15.93;;;;;;;;;;4971426;28;20047;-91
2022/04/25 07:06:36;;;;;;;25.08;16.13;;;;;;;;;;4971486;28;20453;-91
2022/04/25 07:09:04;;;;;;;19.80;16.42;;;;;;;;;;4971436;28;20304;-91
2022/04/25 07:11:31;;;;;;;22.98;16.25;;;;;;;;;;4956473;29;20086;-91
2022/04/25 07:13:59;;;;;;;20.85;15.60;;;;;;;;;;4971073;28;20090;-91
2022/04/25 07:16:27;;;;;;;19.30;15.45;;;;;;;;;;4971221;28;20172;-91
2022/04/25 07:18:55;;;;;;;21.45;16.08;;;;;;;;;;4971035;28;20085;-91
2022/04/25 07:29:59;;;;;;;21.88;17.23;;;;;;;;;;4956120;29;20055;-91
2022/04/25 07:32:27;;;;;;;23.35;16.85;;;;;;;;;;4971266;28;20055;-91
2022/04/25 07:34:54;;;;;;;21.50;16.35;;;;;;;;;;4970695;28;20078;-90
2022/04/25 07:37:22;;;;;;;22.10;16.98;;;;;;;;;;4970791;28;20094;-90
2022/04/25 07:39:50;;;;;;;21.73;16.63;;;;;;;;;;4970683;28;20101;-91
2022/04/25 07:42:20;;;;;;;21.00;16.38;;;;;;;;;;4970759;28;20411;-91
2022/04/25 07:44:48;;;;;;;18.27;15.68;;;;;;;;;;4955694;29;20135;-90
2022/04/25 07:47:15;;;;;;;17.38;14.77;;;;;;;;;;4970981;28;20126;-91
2022/04/25 07:49:42;;;;;;;21.05;16.60;;;;;;;;;;4970986;28;20134;-90
2022/04/25 07:52:14;;;;;;;17.80;14.32;;;;;;;;;;4970179;28;20443;-90
2022/04/25 07:54:41;;;;;;;19.38;15.55;;;;;;;;;;4969603;28;20087;-90
2022/04/25 07:57:08;;;;;;;20.77;15.90;;;;;;;;;;4955687;29;20079;-90
2022/04/25 07:59:35;;;;;;;19.60;15.70;;;;;;;;;;4969813;28;20130;-90
2022/04/25 08:02:03;;;;;;;22.77;16.92;;;;;;;;;;4970211;28;20086;-89
2022/04/25 08:04:30;;;;;;;26.75;17.80;;;;;;;;;;4970216;28;20051;-90
2022/04/25 08:06:57;;;;;;;15.05;13.15;;;;;;;;;;4963531;29;20049;-92
2022/04/25 08:09:24;;;;;;;17.52;12.32;;;;;;;;;;4970549;28;20506;-90
2022/04/25 08:17:56;;;;;;;17.80;13.48;;;;;;;;;;4970547;28;20055;-90
2022/04/25 08:20:11;;;;;;;9.23;8.25;;;;;;;;;;4955467;28;20047;-90
2022/04/25 08:22:38;;;;;;;9.57;8.57;;;;;;;;;;4955507;28;20468;-90
2022/04/25 08:25:07;;;;;;;9.52;8.52;;;;;;;;;;4970412;28;20460;-91
2022/04/25 08:27:40;;;;;;;8.88;7.97;;;;;;;;;;4969857;28;20058;-91
2022/04/25 08:30:08;;;;;;;7.60;6.95;;;;;;;;;;4970442;28;20093;-92
2022/04/25 08:32:35;;;;;;;8.07;7.28;;;;;;;;;;4970484;28;20054;-91
2022/04/25 08:35:02;;;;;;;7.53;6.47;;;;;;;;;;4970606;28;20496;-91
2022/04/25 08:37:30;;;;;;;7.70;7.00;;;;;;;;;;4970642;28;20456;-91
2022/04/25 08:40:03;;;;;;;8.05;7.25;;;;;;;;;;4970211;28;20063;-91
2022/04/25 08:42:31;;;;;;;7.28;6.53;;;;;;;;;;4970706;28;20047;-91
2022/04/25 08:45:11;;;;;;;6.63;6.13;;;;;;;;;;4969115;28;20055;-92
2022/04/25 08:47:47;;;;;;;7.38;6.68;;;;;;;;;;4973564;28;20055;-91
2022/04/25 08:50:17;;;;;;;6.57;6.05;;;;;;;;;;4977869;28;20649;-92
2022/04/25 08:52:45;;;;;;;6.78;6.18;;;;;;;;;;4962057;28;20090;-92
2022/04/25 08:55:13;;;;;;;17.77;16.30;;;;;;;;;;4961260;28;20138;-93
2022/04/25 08:57:42;;;;;;;8.60;7.80;;;;;;;;;;4954101;29;20502;-92
2022/04/25 09:00:10;;;;;;;36.00;22.65;;;;;;;;;;4956621;28;20047;-91
2022/04/25 09:02:41;;;;;;;171.77;94.53;;;;;;;;;;4962958;28;20567;-93
2022/04/25 09:05:09;;;;;;;704.28;392.58;;;;;;;;;;4964639;28;20462;-93
2022/04/25 09:07:37;;;;;;;94.72;51.17;;;;;;;;;;4957768;29;20116;-92
2022/04/25 09:10:16;;;;;;;16.75;13.48;;;;;;;;;;4967181;28;20095;-92
2022/04/25 09:12:46;;;;;;;33.42;21.02;;;;;;;;;;4968925;28;20059;-94
2022/04/25 09:15:21;;;;;;;161.82;114.72;;;;;;;;;;4966831;28;20054;-93
2022/04/25 09:17:56;;;;;;;26.00;18.38;;;;;;;;;;4956921;29;20518;-93
2022/04/25 09:20:24;;;;;;;26.90;21.70;;;;;;;;;;4968474;28;20054;-93
2022/04/25 09:22:52;;;;;;;8.50;7.60;;;;;;;;;;4965653;29;20071;-92
2022/04/25 09:25:20;;;;;;;8.88;8.00;;;;;;;;;;4958929;29;20057;-92
2022/04/25 09:28:09;;;;;;;6.88;6.38;;;;;;;;;;4957615;29;20048;-92
2022/04/25 09:30:37;;;;;;;8.52;7.60;;;;;;;;;;4957729;29;20089;-93
2022/04/25 09:33:21;;;;;;;8.02;5.53;;;;;;;;;;4958257;29;20061;-93
2022/04/25 09:35:56;;;;;;;6.63;6.13;;;;;;;;;;4957504;29;20051;-94
2022/04/25 09:38:34;;;;;;;9.18;6.13;;;;;;;;;;4959794;28;20046;-93
2022/04/25 09:41:03;;;;;;;6.70;5.72;;;;;;;;;;4974545;28;20047;-93
2022/04/25 09:43:31;;;;;;;6.65;6.15;;;;;;;;;;4989733;28;20082;-95
2022/04/25 09:46:00;;;;;;;6.57;6.07;;;;;;;;;;4989153;28;20071;-94
2022/04/25 09:48:28;;;;;;;9.88;6.75;;;;;;;;;;4990178;28;20051;-94
2022/04/25 09:51:05;;;;;;;6.53;5.75;;;;;;;;;;4989563;28;20055;-94
2022/04/25 09:53:46;;;;;;;6.82;6.18;;;;;;;;;;4989761;28;20047;-95
2022/04/25 09:56:15;;;;;;;6.25;5.65;;;;;;;;;;4990027;28;20063;-93
2022/04/25 09:58:44;;;;;;;6.72;6.13;;;;;;;;;;4989948;28;20074;-94
2022/04/25 10:01:12;;;;;;;7.57;6.15;;;;;;;;;;4990800;28;20062;-95
2022/04/25 10:03:40;;;;;;;6.07;5.57;;;;;;;;;;4991167;28;20510;-94
2022/04/25 10:06:07;;;;;;;7.22;6.15;;;;;;;;;;4992673;28;20055;-94
2022/04/25 10:08:35;;;;;;;6.18;5.68;;;;;;;;;;4990821;28;20055;-93
2022/04/25 10:11:03;;;;;;;6.60;5.80;;;;;;;;;;4991355;28;20405;-94
2022/04/25 10:13:31;;;;;;;8.10;6.80;;;;;;;;;;4989680;28;20075;-94
2022/04/25 10:16:00;;;;;;;6.35;5.85;;;;;;;;;;4991799;28;20560;-95
2022/04/25 10:18:30;;;;;;;8.18;6.97;;;;;;;;;;4976897;28;20051;-94
2022/04/25 10:20:57;;;;;;;6.60;5.97;;;;;;;;;;4994296;28;20444;-93
2022/04/25 10:23:25;;;;;;;6.82;6.22;;;;;;;;;;4991910;28;20051;-95
2022/04/25 10:25:57;;;;;;;8.13;6.88;;;;;;;;;;4998496;28;20115;-93
2022/04/25 10:28:29;;;;;;;6.50;6.00;;;;;;;;;;4993097;28;20074;-94
2022/04/25 10:31:05;;;;;;;6.75;6.20;;;;;;;;;;4991562;28;20043;-94
2022/04/25 10:33:54;;;;;;;7.45;6.75;;;;;;;;;;4988883;28;20055;-94
2022/04/25 10:36:37;;;;;;;7.40;6.10;;;;;;;;;;4992183;28;20055;-94
2022/04/25 10:39:21;;;;;;;7.15;6.55;;;;;;;;;;4997170;28;20059;-95
2022/04/25 10:44:42;;;;;;;7.38;6.20;;;;;;;;;;4959714;28;20047;-95
2022/04/25 10:47:18;;;;;;;7.30;6.70;;;;;;;;;;4991698;28;20051;-95
2022/04/25 10:49:46;;;;;;;8.10;6.70;;;;;;;;;;4993037;28;20047;-95
2022/04/25 10:52:33;;;;;;;7.90;7.10;;;;;;;;;;4993544;28;20107;-94
2022/04/25 10:55:11;;;;;;;8.18;7.38;;;;;;;;;;4989958;28;20086;-95
2022/04/25 10:57:58;;;;;;;9.63;7.85;;;;;;;;;;4992046;28;20142;-95
2022/04/25 11:00:41;;;;;;;9.05;8.15;;;;;;;;;;4954993;29;20060;-94
2022/04/25 11:03:09;;;;;;;8.68;7.88;;;;;;;;;;4954938;29;20075;-94
2022/04/25 11:05:37;;;;;;;9.02;8.13;;;;;;;;;;4953599;29;20064;-95
2022/04/25 11:08:22;;;;;;;9.68;8.77;;;;;;;;;;4954233;29;20146;-95
2022/04/25 11:11:00;;;;;;;10.23;9.23;;;;;;;;;;4953598;29;20134;-95
2022/04/25 11:13:33;;;;;;;10.43;9.35;;;;;;;;;;4955129;29;20138;-95
2022/04/25 11:16:18;;;;;;;14.37;11.10;;;;;;;;;;4952714;29;20138;-94
2022/04/25 11:19:05;;;;;;;11.50;10.30;;;;;;;;;;4954300;29;20560;-94
2022/04/25 11:21:32;;;;;;;11.07;10.02;;;;;;;;;;4955183;29;20126;-94
2022/04/25 11:24:01;;;;;;;10.77;9.70;;;;;;;;;;4954780;29;20079;-94
2022/04/25 11:26:29;;;;;;;11.55;10.00;;;;;;;;;;4952331;29;20056;-93
2022/04/25 11:28:58;;;;;;;11.57;10.23;;;;;;;;;;4951734;28;20079;-94
2022/04/25 11:31:26;;;;;;;11.32;10.23;;;;;;;;;;4951964;29;20524;-94
2022/04/25 11:33:54;;;;;;;12.48;10.77;;;;;;;;;;4951864;29;20051;-94
2022/04/25 11:36:22;;;;;;;9.75;8.95;;;;;;;;;;4951909;29;20063;-94
2022/04/25 11:41:38;;;;;;;9.63;8.65;;;;;;;;;;4936813;29;20089;-93
2022/04/25 11:44:06;;;;;;;11.32;10.25;;;;;;;;;;4951699;29;20135;-94
2022/04/25 11:46:34;;;;;;;19.25;11.05;;;;;;;;;;4952622;29;20421;-93
2022/04/25 11:49:01;;;;;;;12.80;11.38;;;;;;;;;;4952319;29;20052;-91
2022/04/25 11:51:29;;;;;;;11.27;9.55;;;;;;;;;;4954346;28;20142;-93
2022/04/25 11:53:58;;;;;;;13.48;11.38;;;;;;;;;;4970968;28;20043;-93
2022/04/25 11:56:26;;;;;;;10.65;9.45;;;;;;;;;;4957139;29;20067;-93
2022/04/25 11:58:55;;;;;;;10.65;9.55;;;;;;;;;;4961569;28;20106;-93
2022/04/25 12:01:33;;;;;;;9.70;8.77;;;;;;;;;;4968355;28;20134;-93
2022/04/25 12:04:14;;;;;;;9.55;8.65;;;;;;;;;;4974007;28;20055;-93
2022/04/25 12:06:47;;;;;;;12.60;10.57;;;;;;;;;;4974236;28;20146;-91
2022/04/25 12:17:41;;;;;;;17.55;10.18;;;;;;;;;;4974847;28;20125;-92
2022/04/25 12:20:11;;;;;;;12.75;9.68;;;;;;;;;;4974459;28;20145;-93
2022/04/25 12:22:39;;;;;;;16.42;9.82;;;;;;;;;;4974001;28;20050;-89
2022/04/25 12:25:23;;;;;;;9.77;8.77;;;;;;;;;;4973978;28;20114;-93
2022/04/25 12:28:03;;;;;;;13.27;8.95;;;;;;;;;;4973816;28;20082;-94
2022/04/25 12:30:51;;;;;;;11.45;10.00;;;;;;;;;;4974102;28;20109;-94
2022/04/25 12:33:19;;;;;;;15.43;9.82;;;;;;;;;;4973354;28;20580;-92
2022/04/25 12:35:47;;;;;;;12.30;10.07;;;;;;;;;;4973690;28;20137;-93
2022/04/25 12:38:35;;;;;;;11.05;9.07;;;;;;;;;;4973575;28;20170;-93
2022/04/25 12:41:02;;;;;;;22.45;15.77;;;;;;;;;;4977191;28;20070;-93
2022/04/25 12:43:36;;;;;;;13.27;10.65;;;;;;;;;;4977443;28;20138;-93
2022/04/25 12:46:04;;;;;;;12.45;10.48;;;;;;;;;;4977568;28;20087;-92
2022/04/25 12:48:32;;;;;;;15.65;10.05;;;;;;;;;;4977805;28;20047;-93
2022/04/25 12:51:02;;;;;;;22.85;11.75;;;;;;;;;;4978477;28;20078;-94
2022/04/25 12:53:39;;;;;;;22.20;11.45;;;;;;;;;;4979324;28;20440;-94
2022/04/25 12:56:07;;;;;;;20.85;11.85;;;;;;;;;;4975792;28;20083;-92
2022/04/25 12:58:34;;;;;;;23.50;12.20;;;;;;;;;;4990771;28;20096;-92
2022/04/25 13:01:01;;;;;;;17.80;11.43;;;;;;;;;;4968842;28;20051;-93
2022/04/25 13:04:04;;;;;;;14.98;11.43;;;;;;;;;;4968656;28;20400;-91
2022/04/25 13:06:32;;;;;;;15.35;11.18;;;;;;;;;;4969033;28;20057;-93
2022/04/25 13:08:59;;;;;;;19.08;12.45;;;;;;;;;;4972136;28;20075;-93
2022/04/25 13:11:46;;;;;;;13.85;10.50;;;;;;;;;;4986217;28;20419;-92
2022/04/25 13:14:14;;;;;;;15.98;11.43;;;;;;;;;;4976829;28;20058;-93
2022/04/25 13:16:42;;;;;;;24.95;12.85;;;;;;;;;;4977051;28;20054;-93
2022/04/25 13:19:09;;;;;;;29.00;13.73;;;;;;;;;;4978673;28;20137;-94
2022/04/25 13:21:39;;;;;;;20.55;12.45;;;;;;;;;;4978353;28;20086;-94
2022/04/25 13:24:06;;;;;;;21.65;12.85;;;;;;;;;;4978865;28;20047;-95
2022/04/25 13:26:34;;;;;;;17.52;13.00;;;;;;;;;;4978683;28;20447;-94
2022/04/25 13:29:01;;;;;;;24.75;13.98;;;;;;;;;;4978309;28;20058;-93
2022/04/25 13:31:28;;;;;;;25.08;13.50;;;;;;;;;;4977104;28;20085;-93
2022/04/25 13:33:57;;;;;;;21.98;14.88;;;;;;;;;;4977274;28;20142;-93
2022/04/25 13:36:24;;;;;;;22.48;14.68;;;;;;;;;;4976690;28;20051;-94
2022/04/25 13:38:51;;;;;;;18.15;14.30;;;;;;;;;;4976766;28;20476;-93
2022/04/25 13:41:19;;;;;;;22.95;13.43;;;;;;;;;;4977178;28;20070;-92
2022/04/25 13:43:49;;;;;;;33.45;15.43;;;;;;;;;;4977709;28;20141;-95
2022/04/25 13:46:17;;;;;;;25.40;15.18;;;;;;;;;;4980065;28;20053;-95
2022/04/25 13:48:45;;;;;;;22.65;15.57;;;;;;;;;;4981735;28;20133;-95
2022/04/25 13:51:14;;;;;;;23.30;16.25;;;;;;;;;;4976308;28;20591;-93
2022/04/25 13:53:42;;;;;;;26.85;17.15;;;;;;;;;;4978227;28;20135;-93
2022/04/25 13:56:09;;;;;;;30.10;18.27;;;;;;;;;;4956088;28;20039;-94
2022/04/25 13:58:44;;;;;;;23.00;16.90;;;;;;;;;;4960245;28;20158;-93
2022/04/25 14:01:12;;;;;;;24.48;16.83;;;;;;;;;;4967050;28;20085;-94
2022/04/25 14:03:39;;;;;;;32.10;23.45;;;;;;;;;;4961388;28;20138;-93
2022/04/25 14:06:06;;;;;;;37.47;26.40;;;;;;;;;;4972938;28;20057;-92
2022/04/25 14:08:33;;;;;;;35.63;25.40;;;;;;;;;;4967538;28;20142;-93
2022/04/25 14:11:00;;;;;;;43.33;27.38;;;;;;;;;;4958231;29;20059;-94
2022/04/25 14:13:28;;;;;;;44.80;28.65;;;;;;;;;;4957822;28;20134;-94
2022/04/25 14:15:56;;;;;;;45.83;28.75;;;;;;;;;;4959625;28;20184;-95
2022/04/25 14:18:24;;;;;;;51.63;30.55;;;;;;;;;;4963886;28;20071;-93
2022/04/25 14:20:55;;;;;;;47.22;29.75;;;;;;;;;;4961005;28;20063;-94
2022/04/25 14:23:26;;;;;;;43.22;29.05;;;;;;;;;;4961644;29;20621;-93
2022/04/25 14:25:56;;;;;;;45.28;28.15;;;;;;;;;;4962286;28;20066;-96
2022/04/25 14:28:23;;;;;;;40.50;28.40;;;;;;;;;;4948478;29;20146;-93
2022/04/25 14:30:50;;;;;;;39.05;26.15;;;;;;;;;;4962482;28;20166;-94
2022/04/25 14:33:18;;;;;;;41.20;27.25;;;;;;;;;;4961379;29;20428;-94
2022/04/25 14:35:47;;;;;;;36.50;26.38;;;;;;;;;;4964330;28;20127;-95
2022/04/25 14:38:22;;;;;;;40.78;26.23;;;;;;;;;;4963093;29;20074;-94
2022/04/25 14:40:51;;;;;;;35.90;25.92;;;;;;;;;;4971887;29;20468;-95
2022/04/25 14:43:24;;;;;;;38.47;26.27;;;;;;;;;;4970056;29;20166;-95
2022/04/25 14:45:54;;;;;;;39.65;28.23;;;;;;;;;;4969854;28;20075;-96
2022/04/25 14:48:26;;;;;;;40.47;27.50;;;;;;;;;;4963658;29;20074;-94
2022/04/25 14:56:30;;;;;;;47.38;29.05;;;;;;;;;;4942714;29;20564;-95
2022/04/25 14:59:01;;;;;;;42.40;28.88;;;;;;;;;;4957290;29;20056;-94
2022/04/25 15:01:30;;;;;;;42.58;28.48;;;;;;;;;;4957589;29;20106;-94
2022/04/25 15:04:02;;;;;;;46.00;28.55;;;;;;;;;;4956916;28;20135;-94
2022/04/25 15:06:29;;;;;;;39.47;27.90;;;;;;;;;;4958782;29;20065;-96
2022/04/25 15:08:56;;;;;;;54.08;29.92;;;;;;;;;;4957336;29;20047;-95
2022/04/25 15:11:24;;;;;;;44.72;29.67;;;;;;;;;;4963989;29;20062;-94
2022/04/25 15:13:52;;;;;;;48.05;29.83;;;;;;;;;;4961753;29;20051;-94
2022/04/25 15:16:27;;;;;;;46.30;27.77;;;;;;;;;;4961821;29;20051;-96
2022/04/25 15:18:56;;;;;;;35.58;24.25;;;;;;;;;;4966716;28;20051;-95